Time,TemperatureF,DewpointF,PressureIn,WindDirection,WindDirectionDegrees,WindSpeedMPH,WindSpeedGustMPH,Humidity,HourlyPrecipIn,Conditions,Clouds,dailyrainin,SoftwareType,DateUTC
2013-08-13 00:00:00,48.0,-99.9,-100.00,North,4,0.0,0.0,-999,-99.99,,,0.00,,2013-08-13 06:00:00,
2013-08-13 00:53:00,48.0,-99.9,-100.00,North,4,0.0,0.0,-999,-99.99,,,0.00,,2013-08-13 06:53:00,
2013-08-13 02:00:00,44.0,-99.9,-100.00,North,-999,-999.0,-999.0,-999,-99.99,,,-99.99,,2013-08-13 08:00:00,
2013-08-13 02:52:00,44.0,-99.9,-100.00,North,-999,-999.0,-999.0,-999,-99.99,,,-99.99,,2013-08-13 08:52:00,
2013-08-13 05:00:00,40.0,-99.9,-100.00,North,-999,-999.0,-999.0,-999,-99.99,,,0.00,,2013-08-13 11:00:00,
2013-08-13 05:52:00,40.0,-99.9,-100.00,North,-999,-999.0,-999.0,-999,-99.99,,,0.00,,2013-08-13 11:52:00,
2013-08-13 06:00:00,-999.0,-99.9,-100.00,North,5,0.0,0.0,-999,-99.99,,,-99.99,,2013-08-13 12:00:00,
2013-08-13 06:52:00,-999.0,-99.9,-100.00,North,5,0.0,0.0,-999,-99.99,,,-99.99,,2013-08-13 12:52:00,
2013-08-13 08:00:00,49.0,-99.9,-100.00,North,4,0.0,0.0,-999,-99.99,,,-99.99,,2013-08-13 14:00:00,
2013-08-13 08:52:00,49.0,-99.9,-100.00,North,4,0.0,0.0,-999,-99.99,,,-99.99,,2013-08-13 14:52:00,
2013-08-13 10:00:00,58.0,-99.9,-100.00,North,-999,-999.0,-999.0,-999,-99.99,,,0.00,,2013-08-13 16:00:00,
2013-08-13 10:54:00,58.0,-99.9,-100.00,North,-999,-999.0,-999.0,-999,-99.99,,,0.00,,2013-08-13 16:54:00,
2013-08-13 12:00:00,62.0,-99.9,-100.00,North,0,1.0,11.0,-999,-99.99,,,0.00,,2013-08-13 18:00:00,
2013-08-13 12:56:00,62.0,-99.9,-100.00,North,0,1.0,11.0,-999,-99.99,,,0.00,,2013-08-13 18:56:00,
2013-08-13 14:00:00,55.0,-99.9,-100.00,North,4,1.0,10.0,-999,-99.99,,,0.00,,2013-08-13 20:00:00,
2013-08-13 14:53:00,55.0,-99.9,-100.00,North,4,1.0,10.0,-999,-99.99,,,0.00,,2013-08-13 20:53:00,
2013-08-13 15:00:00,57.0,-99.9,-100.00,North,2,0.0,9.0,-999,-99.99,,,0.00,,2013-08-13 21:00:00,
2013-08-13 15:54:00,57.0,-99.9,-100.00,North,2,0.0,9.0,-999,-99.99,,,0.00,,2013-08-13 21:54:00,
2013-08-13 16:00:00,64.0,-99.9,-100.00,North,1,0.0,3.0,-999,-99.99,,,0.00,,2013-08-13 22:00:00,
2013-08-13 16:57:00,64.0,-99.9,-100.00,North,1,0.0,3.0,-999,-99.99,,,0.00,,2013-08-13 22:57:00,
2013-08-13 17:00:00,61.0,-99.9,-100.00,North,4,1.0,5.0,-999,-99.99,,,0.00,,2013-08-13 23:00:00,
2013-08-13 17:57:00,61.0,-99.9,-100.00,North,4,1.0,5.0,-999,-99.99,,,0.00,,2013-08-13 23:57:00,
2013-08-13 18:00:00,51.0,-99.9,-100.00,North,-999,-999.0,-999.0,-999,-99.99,,,0.01,,2013-08-14 00:00:00,
2013-08-13 18:52:00,51.0,-99.9,-100.00,North,-999,-999.0,-999.0,-999,-99.99,,,0.01,,2013-08-14 00:52:00,
2013-08-13 19:00:00,51.0,-99.9,-100.00,North,-999,-999.0,-999.0,-999,-99.99,,,0.01,,2013-08-14 01:00:00,
2013-08-13 19:53:00,51.0,-99.9,-100.00,North,-999,-999.0,-999.0,-999,-99.99,,,0.01,,2013-08-14 01:53:00,
2013-08-13 22:00:00,47.0,-99.9,-100.00,North,4,0.0,0.0,-999,-99.99,,,0.01,,2013-08-14 04:00:00,
2013-08-13 22:52:00,47.0,-99.9,-100.00,North,4,0.0,0.0,-999,-99.99,,,0.01,,2013-08-14 04:52:00,
2013-08-13 23:00:00,45.0,-99.9,-100.00,North,4,0.0,0.0,-999,-99.99,,,0.01,,2013-08-14 05:00:00,
2013-08-13 23:52:00,45.0,-99.9,-100.00,North,4,0.0,0.0,-999,-99.99,,,0.01,,2013-08-14 05:52:00,